createdAt,value
2018-04-11T00:01:08.497Z,78.20
2018-04-11T00:03:38.056Z,78.20
2018-04-11T00:06:04.553Z,78.20
2018-04-11T00:11:06.271Z,78.70
2018-04-11T00:13:40.195Z,79.20
2018-04-11T00:16:09.977Z,79.20
2018-04-11T00:18:40.279Z,79.10
2018-04-11T00:21:09.881Z,78.20
2018-04-11T00:23:40.347Z,78.80
2018-04-11T00:26:10.979Z,78.60
2018-04-11T00:28:41.686Z,79.40
2018-04-11T00:31:09.805Z,79.00
2018-04-11T00:33:42.215Z,79.00
2018-04-11T00:36:11.653Z,77.90
2018-04-11T00:38:41.090Z,77.80
2018-04-11T00:41:11.090Z,78.10
2018-04-11T00:43:40.413Z,78.10
2018-04-11T00:46:10.652Z,77.00
2018-04-11T00:48:36.989Z,77.70
2018-04-11T00:51:03.224Z,78.60
2018-04-11T00:53:35.926Z,79.00
2018-04-11T00:56:10.205Z,78.90
2018-04-11T00:58:40.821Z,78.90
2018-04-11T01:01:07.920Z,80.90
2018-04-11T01:03:39.960Z,80.80
2018-04-11T01:06:09.393Z,80.90
2018-04-11T01:08:39.617Z,80.90
2018-04-11T01:11:05.949Z,81.10
2018-04-11T01:13:32.937Z,78.80
2018-04-11T01:16:10.077Z,78.80
2018-04-11T01:18:42.485Z,79.10
2018-04-11T01:21:09.742Z,79.00
2018-04-11T01:23:36.040Z,79.50
2018-04-11T01:26:03.508Z,79.20
2018-04-11T01:28:30.524Z,78.90
2018-04-11T01:31:03.277Z,79.80
2018-04-11T01:36:09.991Z,79.40
2018-04-11T01:38:36.266Z,80.40
2018-04-11T01:41:02.540Z,80.20
2018-04-11T01:43:40.005Z,79.70
2018-04-11T01:46:12.672Z,80.20
2018-04-11T01:51:39.871Z,80.60
2018-04-11T01:54:09.888Z,80.10
2018-04-11T01:56:36.089Z,80.20
2018-04-11T01:59:10.668Z,79.60
2018-04-11T02:01:39.920Z,79.70
2018-04-11T02:04:06.252Z,80.50
2018-04-11T02:06:41.516Z,80.10
2018-04-11T02:09:10.101Z,80.90
2018-04-11T02:11:39.991Z,80.10
2018-04-11T02:14:10.364Z,80.70
2018-04-11T02:16:40.508Z,80.50
2018-04-11T02:19:09.972Z,80.30
2018-04-11T02:21:40.402Z,80.30
2018-04-11T02:24:12.681Z,80.10
2018-04-11T02:26:39.986Z,80.60
2018-04-11T02:29:12.247Z,80.40
2018-04-11T02:31:39.981Z,80.10
2018-04-11T02:34:10.188Z,80.10
2018-04-11T02:36:36.399Z,80.30
2018-04-11T02:39:02.707Z,80.70
2018-04-11T02:41:44.287Z,80.60
2018-04-11T02:44:10.590Z,80.60
2018-04-11T02:46:39.783Z,81.00
2018-04-11T02:49:10.404Z,80.20
2018-04-11T02:51:36.676Z,80.50
2018-04-11T02:54:09.893Z,80.00
2018-04-11T02:56:40.597Z,80.00
2018-04-11T02:59:11.704Z,79.70
2018-04-11T03:01:41.568Z,78.60
2018-04-11T03:04:10.154Z,78.00
2018-04-11T03:06:36.439Z,79.00
2018-04-11T03:09:12.564Z,78.90
2018-04-11T03:11:40.623Z,78.60
2018-04-11T03:14:10.918Z,78.40
2018-04-11T03:16:40.437Z,77.90
2018-04-11T03:19:09.982Z,76.70
2018-04-11T03:21:39.959Z,77.10
2018-04-11T03:24:12.352Z,77.50
2018-04-11T03:26:40.440Z,77.50
2018-04-11T03:29:06.690Z,77.70
2018-04-11T03:31:39.883Z,77.60
2018-04-11T03:34:10.007Z,76.40
2018-04-11T03:36:36.316Z,76.30
2018-04-11T03:39:02.607Z,75.00
2018-04-11T03:41:32.459Z,75.10
2018-04-11T03:43:59.419Z,75.10
2018-04-11T03:46:40.758Z,74.30
2018-04-11T03:49:11.751Z,74.70
2018-04-11T03:51:40.785Z,75.70
2018-04-11T03:54:11.284Z,77.30
2018-04-11T03:56:39.939Z,78.30
2018-04-11T03:59:10.257Z,78.30
2018-04-11T04:01:39.984Z,78.80
2018-04-11T04:04:06.986Z,78.80
2018-04-11T04:06:33.206Z,78.70
2018-04-11T04:09:03.987Z,79.20
2018-04-11T04:11:42.619Z,79.30
2018-04-11T04:14:23.943Z,79.60
2018-04-11T04:17:05.475Z,79.90
2018-04-11T04:19:47.439Z,80.40
2018-04-11T04:22:13.630Z,80.10
2018-04-11T04:24:40.656Z,78.50
2018-04-11T04:27:06.985Z,77.50
2018-04-11T04:29:36.646Z,77.90
2018-04-11T04:32:04.592Z,77.90
2018-04-11T04:34:32.648Z,77.50
2018-04-11T04:37:09.877Z,77.50
2018-04-11T04:39:57.020Z,77.10
2018-04-11T04:42:33.079Z,76.80
2018-04-11T04:45:09.762Z,76.70
2018-04-11T04:47:36.104Z,77.20
2018-04-11T04:50:11.384Z,77.90
2018-04-11T04:52:41.742Z,77.40
2018-04-11T04:55:10.120Z,76.60
2018-04-11T04:57:36.350Z,76.20
2018-04-11T05:00:05.860Z,76.20
2018-04-11T05:02:32.165Z,76.10
2018-04-11T05:04:58.452Z,76.50
2018-04-11T05:07:25.112Z,76.90
2018-04-11T05:09:51.579Z,76.30
2018-04-11T05:12:18.048Z,76.70
2018-04-11T05:14:44.340Z,76.60
2018-04-11T05:17:10.599Z,76.00
2018-04-11T05:19:37.479Z,74.50
2018-04-11T05:22:03.704Z,76.20
2018-04-11T05:24:30.315Z,76.10
2018-04-11T05:29:37.004Z,78.00
2018-04-11T05:32:05.981Z,76.10
2018-04-11T05:34:41.689Z,75.90
2018-04-11T05:37:07.979Z,75.80
2018-04-11T05:39:40.235Z,75.90
2018-04-11T05:42:06.780Z,76.40
2018-04-11T05:44:34.600Z,75.50
2018-04-11T05:47:12.888Z,75.70
2018-04-11T05:49:40.440Z,75.40
2018-04-11T05:52:10.289Z,76.80
2018-04-11T05:54:40.354Z,76.70
2018-04-11T05:57:06.610Z,76.20
2018-04-11T05:59:40.301Z,75.20
2018-04-11T06:02:10.420Z,75.60
2018-04-11T06:04:40.425Z,76.10
2018-04-11T06:07:10.143Z,76.00
2018-04-11T06:12:40.160Z,76.20
2018-04-11T06:15:06.605Z,76.00
2018-04-11T06:17:32.933Z,76.20
2018-04-11T06:23:03.200Z,76.00
2018-04-11T06:25:30.320Z,75.50
2018-04-11T06:27:57.361Z,74.50
2018-04-11T06:30:24.883Z,75.90
2018-04-11T06:32:53.836Z,75.90
2018-04-11T06:35:22.061Z,75.60
2018-04-11T06:37:50.700Z,76.30
2018-04-11T06:40:17.211Z,76.40
2018-04-11T06:42:44.571Z,77.40
2018-04-11T06:45:10.846Z,77.80
2018-04-11T06:47:45.835Z,76.90
2018-04-11T06:53:15.905Z,77.40
2018-04-11T06:55:44.340Z,76.50
2018-04-11T06:58:14.728Z,76.50
2018-04-11T07:00:42.174Z,77.90
2018-04-11T07:03:08.893Z,77.90
2018-04-11T07:05:45.888Z,77.70
2018-04-11T07:08:12.125Z,75.60
2018-04-11T07:10:43.624Z,76.50
2018-04-11T07:13:11.249Z,76.60
2018-04-11T07:15:44.153Z,77.00
2018-04-11T07:18:12.855Z,77.10
2018-04-11T07:20:39.493Z,75.40
2018-04-11T07:23:14.488Z,75.70
2018-04-11T07:25:44.512Z,76.10
2018-04-11T07:28:11.094Z,76.40
2018-04-11T07:30:38.552Z,77.10
2018-04-11T07:33:06.344Z,76.50
2018-04-11T07:35:34.034Z,75.60
2018-04-11T07:38:01.020Z,75.20
2018-04-11T07:40:27.400Z,75.20
2018-04-11T07:42:53.790Z,74.20
2018-04-11T07:45:20.984Z,73.20
2018-04-11T07:47:47.255Z,73.20
2018-04-11T07:50:13.513Z,75.30
2018-04-11T07:52:40.585Z,72.50
2018-04-11T07:55:06.824Z,72.40
2018-04-11T07:57:33.941Z,73.40
2018-04-11T08:00:01.126Z,73.30
2018-04-11T08:02:27.851Z,70.60
2018-04-11T08:05:01.837Z,71.10
2018-04-11T08:07:30.848Z,68.90
2018-04-11T08:13:02.021Z,71.00
2018-04-11T08:15:32.217Z,72.70
2018-04-11T08:18:01.599Z,73.50
2018-04-11T08:20:46.824Z,70.60
2018-04-11T08:23:14.539Z,71.20
2018-04-11T08:25:45.340Z,70.00
2018-04-11T08:28:15.547Z,71.20
2018-04-11T08:30:45.667Z,70.40
2018-04-11T08:33:15.075Z,69.80
2018-04-11T08:35:44.359Z,71.60
2018-04-11T08:38:15.805Z,70.30
2018-04-11T08:40:45.380Z,69.10
2018-04-11T08:43:14.624Z,67.00
2018-04-11T08:45:45.214Z,69.70
2018-04-11T08:48:14.874Z,68.10
2018-04-11T08:50:44.856Z,69.20
2018-04-11T08:53:14.313Z,69.20
2018-04-11T08:55:44.439Z,69.60
2018-04-11T08:58:13.385Z,69.00
2018-04-11T09:00:42.161Z,68.70
2018-04-11T09:03:14.476Z,66.50
2018-04-11T09:05:43.456Z,66.20
2018-04-11T09:08:10.863Z,66.60
2018-04-11T09:10:44.948Z,64.50
2018-04-11T09:13:15.546Z,65.90
2018-04-11T09:15:45.460Z,65.80
2018-04-11T09:18:14.861Z,64.40
2018-04-11T09:20:47.189Z,65.30
2018-04-11T09:23:15.249Z,66.90
2018-04-11T09:25:44.437Z,61.30
2018-04-11T09:28:11.590Z,61.70
2018-04-11T09:30:38.163Z,60.80
2018-04-11T09:33:14.136Z,62.00
2018-04-11T09:35:46.485Z,61.40
2018-04-11T09:38:14.028Z,59.90
2018-04-11T09:40:44.456Z,59.90
2018-04-11T09:43:14.959Z,59.00
2018-04-11T09:45:45.018Z,61.00
2018-04-11T09:48:15.162Z,57.10
2018-04-11T09:50:48.034Z,57.10
2018-04-11T09:53:14.901Z,59.00
2018-04-11T09:55:44.699Z,57.70
2018-04-11T09:58:15.732Z,59.20
2018-04-11T10:00:55.058Z,56.10
2018-04-11T10:03:25.595Z,56.00
2018-04-11T10:05:54.115Z,55.80
2018-04-11T10:08:21.825Z,57.10
2018-04-11T10:10:48.720Z,56.30
2018-04-11T10:13:15.918Z,56.20
2018-04-11T10:15:46.199Z,57.10
2018-04-11T10:18:14.812Z,57.10
2018-04-11T10:20:45.053Z,58.10
2018-04-11T10:23:14.575Z,55.70
2018-04-11T10:25:44.832Z,56.40
2018-04-11T10:28:14.525Z,55.70
2018-04-11T10:30:46.907Z,53.10
2018-04-11T10:33:14.609Z,54.00
2018-04-11T10:35:46.937Z,53.60
2018-04-11T10:38:16.511Z,54.20
2018-04-11T10:40:45.800Z,50.80
2018-04-11T10:43:15.408Z,50.70
2018-04-11T10:45:45.136Z,51.20
2018-04-11T10:48:15.397Z,50.70
2018-04-11T10:50:45.707Z,48.20
2018-04-11T10:53:15.630Z,49.10
2018-04-11T10:55:45.173Z,51.10
2018-04-11T10:58:14.854Z,51.40
2018-04-11T11:00:45.550Z,45.50
2018-04-11T11:03:15.611Z,50.30
2018-04-11T11:05:45.792Z,50.80
2018-04-11T11:08:16.070Z,49.40
2018-04-11T11:13:44.740Z,48.10
2018-04-11T11:16:16.969Z,45.50
2018-04-11T11:18:45.165Z,46.20
2018-04-11T11:21:31.637Z,45.70
2018-04-11T11:23:57.898Z,45.50
2018-04-11T11:26:37.858Z,45.40
2018-04-11T11:29:04.567Z,44.10
2018-04-11T11:31:31.225Z,46.00
2018-04-11T11:33:57.567Z,47.50
2018-04-11T11:36:45.561Z,45.70
2018-04-11T11:39:14.915Z,45.00
2018-04-11T11:41:45.824Z,43.40
2018-04-11T11:44:14.660Z,43.30
2018-04-11T11:46:44.390Z,43.10
2018-04-11T11:49:15.388Z,40.70
2018-04-11T11:51:44.950Z,40.70
2018-04-11T11:54:17.317Z,38.10
2018-04-11T11:56:45.729Z,39.20
2018-04-11T11:59:15.349Z,40.10
2018-04-11T12:01:44.847Z,38.10
2018-04-11T12:04:17.222Z,36.30
2018-04-11T12:06:44.924Z,36.50
2018-04-11T12:09:11.188Z,38.30
2018-04-11T12:11:40.648Z,37.60
2018-04-11T12:14:10.156Z,35.20
2018-04-11T12:16:36.377Z,34.10
2018-04-11T12:19:02.747Z,33.50
2018-04-11T12:21:31.970Z,31.70
2018-04-11T12:24:00.441Z,32.50
2018-04-11T12:26:26.735Z,32.50
2018-04-11T12:28:53.316Z,30.00
2018-04-11T12:33:52.153Z,29.10
2018-04-11T12:36:18.456Z,29.20
2018-04-11T12:38:52.706Z,27.70
2018-04-11T12:41:18.979Z,27.70
2018-04-11T12:43:45.359Z,28.00
2018-04-11T12:46:11.552Z,27.10
2018-04-11T12:48:38.556Z,25.90
2018-04-11T12:51:04.839Z,25.90
2018-04-11T12:53:31.075Z,26.00
2018-04-11T12:55:57.323Z,26.10
2018-04-11T12:58:24.361Z,25.60
2018-04-11T13:00:50.625Z,25.60
2018-04-11T13:03:18.050Z,25.50
2018-04-11T13:05:44.463Z,25.50
2018-04-11T13:08:10.701Z,24.50
2018-04-11T13:10:38.002Z,24.70
2018-04-11T13:13:04.360Z,23.60
2018-04-11T13:15:30.951Z,24.30
2018-04-11T13:17:57.427Z,24.10
2018-04-11T13:20:26.375Z,23.80
2018-04-11T13:23:12.702Z,22.50
2018-04-11T13:25:40.028Z,23.00
2018-04-11T13:28:10.593Z,23.10
2018-04-11T13:30:37.189Z,23.30
2018-04-11T13:33:10.129Z,24.40
2018-04-11T13:35:40.365Z,24.20
2018-04-11T13:38:09.412Z,23.90
2018-04-11T13:40:35.862Z,24.20
2018-04-11T13:43:02.569Z,26.30
2018-04-11T13:45:41.919Z,27.00
2018-04-11T13:48:09.944Z,25.40
2018-04-11T13:50:36.403Z,26.60
2018-04-11T13:53:03.210Z,27.00
2018-04-11T13:55:31.720Z,27.20
2018-04-11T13:57:58.757Z,26.50
2018-04-11T14:00:25.576Z,26.20
2018-04-11T14:02:51.982Z,29.50
2018-04-11T14:05:18.321Z,28.90
2018-04-11T14:07:44.720Z,27.60
2018-04-11T14:10:12.645Z,31.00
2018-04-11T14:12:38.940Z,30.30
2018-04-11T14:15:05.345Z,30.60
2018-04-11T14:17:32.613Z,29.90
2018-04-11T14:20:00.721Z,29.80
2018-04-11T14:22:27.078Z,29.20
2018-04-11T14:24:53.608Z,31.20
2018-04-11T14:27:20.143Z,32.30
2018-04-11T14:29:48.775Z,30.20
2018-04-11T14:32:15.366Z,30.60
2018-04-11T14:34:41.736Z,31.50
2018-04-11T14:37:09.461Z,30.80
2018-04-11T14:39:37.969Z,29.90
2018-04-11T14:42:05.286Z,30.20
2018-04-11T14:44:32.955Z,30.00
2018-04-11T14:47:03.439Z,31.90
2018-04-11T14:49:30.963Z,31.60
2018-04-11T14:51:59.037Z,32.40
2018-04-11T14:54:25.759Z,32.30
2018-04-11T14:56:52.808Z,33.00
2018-04-11T14:59:20.317Z,31.90
2018-04-11T15:01:47.910Z,32.90
2018-04-11T15:04:17.240Z,32.90
2018-04-11T15:06:43.556Z,32.50
2018-04-11T15:09:10.829Z,33.80
2018-04-11T15:11:37.551Z,31.70
2018-04-11T15:14:08.904Z,32.40
2018-04-11T15:16:36.942Z,33.30
2018-04-11T15:19:09.576Z,32.20
2018-04-11T15:21:36.491Z,33.60
2018-04-11T15:24:10.613Z,32.70
2018-04-11T15:26:37.928Z,31.90
2018-04-11T15:29:10.740Z,31.90
2018-04-11T15:31:41.311Z,31.80
2018-04-11T15:34:07.881Z,32.80
2018-04-11T15:36:37.738Z,33.00
2018-04-11T15:39:07.656Z,33.00
2018-04-11T15:41:39.983Z,33.00
2018-04-11T15:44:07.675Z,32.60
2018-04-11T15:46:40.645Z,32.60
2018-04-11T15:49:07.401Z,32.20
2018-04-11T15:51:38.491Z,31.90
2018-04-11T15:54:04.978Z,32.60
2018-04-11T15:56:42.871Z,32.80
2018-04-11T15:59:10.181Z,32.50
2018-04-11T16:01:37.753Z,32.20
2018-04-11T16:04:05.258Z,32.90
2018-04-11T16:06:32.041Z,32.20
2018-04-11T16:08:59.686Z,32.50
2018-04-11T16:11:28.954Z,32.20
2018-04-11T16:13:56.838Z,31.30
2018-04-11T16:16:24.623Z,32.20
2018-04-11T16:18:51.489Z,31.30
2018-04-11T16:21:18.878Z,32.10
2018-04-11T16:23:45.335Z,33.20
2018-04-11T16:26:12.638Z,32.30
2018-04-11T16:28:39.877Z,32.80
2018-04-11T16:31:08.541Z,32.40
2018-04-11T16:33:37.402Z,31.00
2018-04-11T16:36:04.041Z,32.30
2018-04-11T16:38:30.564Z,32.40
2018-04-11T16:40:57.858Z,32.10
2018-04-11T16:43:25.504Z,32.10
2018-04-11T16:45:52.180Z,30.50
2018-04-11T16:48:24.305Z,31.30
2018-04-11T16:50:50.930Z,32.10
2018-04-11T16:53:18.307Z,31.80
2018-04-11T16:55:44.625Z,33.20
2018-04-11T16:58:10.915Z,33.30
2018-04-11T17:00:37.155Z,32.90
2018-04-11T17:03:03.592Z,32.40
2018-04-11T17:05:37.195Z,32.70
2018-04-11T17:08:03.742Z,33.60
2018-04-11T17:10:30.332Z,33.70
2018-04-11T17:12:57.480Z,35.20
2018-04-11T17:15:24.377Z,35.00
2018-04-11T17:17:50.932Z,36.30
2018-04-11T17:20:17.563Z,36.30
2018-04-11T17:22:56.838Z,35.60
2018-04-11T17:25:35.309Z,36.00
2018-04-11T17:28:13.818Z,37.10
2018-04-11T17:30:52.550Z,37.30
2018-04-11T17:33:18.953Z,36.90
2018-04-11T17:35:46.313Z,38.30
2018-04-11T17:38:12.647Z,37.60
2018-04-11T17:40:38.936Z,38.80
2018-04-11T17:43:05.546Z,39.20
2018-04-11T17:45:32.714Z,40.20
2018-04-11T17:48:00.392Z,40.20
2018-04-11T17:50:27.485Z,40.00
2018-04-11T17:52:56.262Z,40.00
2018-04-11T17:55:22.745Z,40.00
2018-04-11T17:58:00.857Z,39.90
2018-04-11T18:00:27.685Z,39.70
2018-04-11T18:02:58.220Z,41.10
2018-04-11T18:05:27.425Z,40.80
2018-04-11T18:07:57.376Z,43.00
2018-04-11T18:10:23.636Z,42.10
2018-04-11T18:12:49.898Z,43.00
2018-04-11T18:15:16.388Z,42.40
2018-04-11T18:17:43.421Z,43.40
2018-04-11T18:20:09.727Z,43.30
2018-04-11T18:22:42.889Z,43.20
2018-04-11T18:25:10.453Z,44.40
2018-04-11T18:27:41.610Z,44.30
2018-04-11T18:30:11.902Z,44.30
2018-04-11T18:32:40.014Z,45.00
2018-04-11T18:35:13.260Z,45.10
2018-04-11T18:37:40.396Z,46.20
2018-04-11T18:43:10.758Z,47.00
2018-04-11T18:45:40.593Z,47.90
2018-04-11T18:48:10.748Z,47.40
2018-04-11T18:50:40.253Z,47.90
2018-04-11T18:53:10.384Z,48.50
2018-04-11T18:55:40.043Z,47.70
2018-04-11T18:58:12.677Z,47.70
2018-04-11T19:00:42.160Z,48.00
2018-04-11T19:03:09.777Z,48.70
2018-04-11T19:05:36.129Z,49.40
2018-04-11T19:08:03.689Z,49.60
2018-04-11T19:10:40.463Z,50.40
2018-04-11T19:13:10.762Z,50.80
2018-04-11T19:15:37.030Z,51.00
2018-04-11T19:18:03.299Z,50.80
2018-04-11T19:20:29.583Z,51.20
2018-04-11T19:22:55.831Z,50.80
2018-04-11T19:25:25.664Z,49.70
2018-04-11T19:27:52.675Z,50.60
2018-04-11T19:30:18.964Z,50.60
2018-04-11T19:32:45.297Z,49.90
2018-04-11T19:35:11.585Z,49.20
2018-04-11T19:37:37.911Z,50.10
2018-04-11T19:40:04.265Z,49.50
2018-04-11T19:42:30.627Z,50.90
2018-04-11T19:44:56.864Z,51.00
2018-04-11T19:47:23.927Z,50.50
2018-04-11T19:49:50.192Z,50.50
2018-04-11T19:52:16.446Z,51.50
2018-04-11T19:55:10.584Z,51.00
2018-04-11T19:57:37.111Z,51.20
2018-04-11T20:00:03.848Z,51.40
2018-04-11T20:02:30.775Z,51.40
2018-04-11T20:05:03.835Z,49.70
2018-04-11T20:07:30.268Z,49.20
2018-04-11T20:09:56.557Z,50.60
2018-04-11T20:12:22.897Z,49.90
2018-04-11T20:14:49.163Z,51.00
2018-04-11T20:17:16.123Z,50.90
2018-04-11T20:19:42.508Z,51.20
2018-04-11T20:22:16.088Z,51.00
2018-04-11T20:24:42.439Z,51.80
2018-04-11T20:27:08.731Z,51.20
2018-04-11T20:29:38.354Z,52.10
2018-04-11T20:32:04.791Z,51.50
2018-04-11T20:34:31.099Z,51.60
2018-04-11T20:36:57.350Z,52.00
2018-04-11T20:39:23.627Z,51.20
2018-04-11T20:41:50.211Z,51.70
2018-04-11T20:44:16.630Z,51.00
2018-04-11T20:46:43.211Z,51.80
2018-04-11T20:49:09.601Z,52.00
2018-04-11T20:51:35.964Z,52.50
2018-04-11T20:54:02.257Z,51.10
2018-04-11T20:56:28.470Z,51.20
2018-04-11T20:58:54.756Z,52.10
2018-04-11T21:01:21.117Z,52.20
2018-04-11T21:03:47.422Z,52.80
2018-04-11T21:06:13.851Z,53.10
2018-04-11T21:08:40.880Z,53.50
2018-04-11T21:11:07.253Z,53.40
2018-04-11T21:13:34.201Z,54.30
2018-04-11T21:16:00.534Z,53.60
2018-04-11T21:18:26.834Z,52.80
2018-04-11T21:20:53.293Z,53.70
2018-04-11T21:23:19.642Z,53.50
2018-04-11T21:25:45.920Z,53.90
2018-04-11T21:28:12.312Z,53.80
2018-04-11T21:30:38.590Z,53.90
2018-04-11T21:33:04.896Z,54.20
2018-04-11T21:35:31.135Z,54.50
2018-04-11T21:37:57.445Z,54.30
2018-04-11T21:40:23.919Z,54.40
2018-04-11T21:42:50.172Z,54.00
2018-04-11T21:45:16.466Z,55.20
2018-04-11T21:47:42.775Z,54.50
2018-04-11T21:50:08.970Z,55.20
2018-04-11T21:52:35.926Z,54.70
2018-04-11T21:55:02.167Z,54.70
2018-04-11T21:57:28.404Z,55.10
2018-04-11T21:59:54.650Z,54.50
2018-04-11T22:02:21.687Z,55.20
2018-04-11T22:04:47.925Z,55.10
2018-04-11T22:07:14.198Z,55.00
2018-04-11T22:09:41.235Z,55.00
2018-04-11T22:12:07.418Z,55.00
2018-04-11T22:14:34.417Z,55.10
2018-04-11T22:17:00.750Z,55.00
2018-04-11T22:19:26.972Z,55.00
2018-04-11T22:21:53.267Z,55.00
2018-04-11T22:24:19.485Z,55.10
2018-04-11T22:26:45.739Z,56.30
2018-04-11T22:29:11.988Z,55.60
2018-04-11T22:31:38.264Z,56.00
2018-04-11T22:34:06.028Z,56.20
2018-04-11T22:36:33.092Z,56.00
2018-04-11T22:39:00.240Z,56.10
2018-04-11T22:41:26.487Z,56.10
2018-04-11T22:43:53.457Z,56.80
2018-04-11T22:46:20.459Z,56.50
2018-04-11T22:48:46.699Z,56.50
2018-04-11T22:51:13.748Z,57.40
2018-04-11T22:53:40.089Z,57.40
2018-04-11T22:56:06.493Z,57.40
2018-04-11T22:58:33.507Z,57.90
2018-04-11T23:00:59.897Z,57.90
2018-04-11T23:03:26.128Z,57.90
2018-04-11T23:05:52.364Z,58.10
2018-04-11T23:08:18.637Z,57.70
2018-04-11T23:10:45.078Z,58.00
2018-04-11T23:13:11.421Z,58.20
2018-04-11T23:15:38.450Z,58.50
2018-04-11T23:18:04.808Z,58.40
2018-04-11T23:20:31.079Z,58.80
2018-04-11T23:22:57.325Z,58.80
2018-04-11T23:25:23.616Z,59.00
2018-04-11T23:27:50.661Z,59.30
2018-04-11T23:30:16.928Z,59.30
2018-04-11T23:32:43.186Z,59.60
2018-04-11T23:35:10.179Z,59.90
2018-04-11T23:37:36.439Z,59.90
2018-04-11T23:40:02.699Z,59.90
2018-04-11T23:42:28.924Z,60.00
2018-04-11T23:44:55.267Z,60.30
2018-04-11T23:47:21.488Z,60.50
2018-04-11T23:49:47.718Z,60.60
2018-04-11T23:52:13.940Z,60.60
2018-04-11T23:54:40.926Z,61.40
2018-04-11T23:57:07.129Z,61.50
2018-04-11T23:59:33.436Z,60.60
